sensor_id;sensor_type;location;lat;lon;timestamp;temperature;humidity
1361;DHT22;674;45.552;-122.600;2023-07-13T00:01:15;27.90;1.00
1361;DHT22;674;45.552;-122.600;2023-07-13T00:03:44;28.00;1.00
1361;DHT22;674;45.552;-122.600;2023-07-13T00:06:13;28.00;1.00
1361;DHT22;674;45.552;-122.600;2023-07-13T00:08:42;28.00;1.00
1361;DHT22;674;45.552;-122.600;2023-07-13T00:11:10;28.00;1.00
1361;DHT22;674;45.552;-122.600;2023-07-13T00:13:39;28.00;1.00
1361;DHT22;674;45.552;-122.600;2023-07-13T00:16:10;28.00;1.00
1361;DHT22;674;45.552;-122.600;2023-07-13T00:18:39;27.80;1.00
1361;DHT22;674;45.552;-122.600;2023-07-13T00:21:08;27.80;1.00
1361;DHT22;674;45.552;-122.600;2023-07-13T00:23:39;27.60;1.00
1361;DHT22;674;45.552;-122.600;2023-07-13T00:26:10;27.70;1.00
1361;DHT22;674;45.552;-122.600;2023-07-13T00:28:40;27.70;1.00
1361;DHT22;674;45.552;-122.600;2023-07-13T00:31:11;27.60;1.00
1361;DHT22;674;45.552;-122.600;2023-07-13T00:33:41;27.60;1.00
1361;DHT22;674;45.552;-122.600;2023-07-13T00:36:10;27.60;1.00
1361;DHT22;674;45.552;-122.600;2023-07-13T00:38:39;27.50;1.00
1361;DHT22;674;45.552;-122.600;2023-07-13T00:41:08;27.40;1.00
1361;DHT22;674;45.552;-122.600;2023-07-13T00:43:37;27.50;1.00
1361;DHT22;674;45.552;-122.600;2023-07-13T00:46:29;27.60;1.00
1361;DHT22;674;45.552;-122.600;2023-07-13T00:49:05;27.60;1.00
1361;DHT22;674;45.552;-122.600;2023-07-13T00:51:40;27.60;1.00
1361;DHT22;674;45.552;-122.600;2023-07-13T00:54:14;27.70;1.00
1361;DHT22;674;45.552;-122.600;2023-07-13T00:56:45;27.70;1.00
1361;DHT22;674;45.552;-122.600;2023-07-13T00:59:15;27.70;1.00
1361;DHT22;674;45.552;-122.600;2023-07-13T01:01:47;27.50;1.00
1361;DHT22;674;45.552;-122.600;2023-07-13T01:04:16;27.60;1.00
1361;DHT22;674;45.552;-122.600;2023-07-13T01:06:45;27.50;1.00
1361;DHT22;674;45.552;-122.600;2023-07-13T01:09:15;27.60;1.00
1361;DHT22;674;45.552;-122.600;2023-07-13T01:11:44;27.40;1.00
1361;DHT22;674;45.552;-122.600;2023-07-13T01:14:13;27.40;1.00
1361;DHT22;674;45.552;-122.600;2023-07-13T01:16:42;27.50;1.00
1361;DHT22;674;45.552;-122.600;2023-07-13T01:22:06;27.60;1.00
1361;DHT22;674;45.552;-122.600;2023-07-13T01:24:37;27.60;1.00
1361;DHT22;674;45.552;-122.600;2023-07-13T01:27:07;27.50;1.00
1361;DHT22;674;45.552;-122.600;2023-07-13T01:29:37;27.50;1.00
1361;DHT22;674;45.552;-122.600;2023-07-13T01:32:14;27.50;1.00
1361;DHT22;674;45.552;-122.600;2023-07-13T01:34:44;27.40;1.00
1361;DHT22;674;45.552;-122.600;2023-07-13T01:37:12;27.50;1.00
1361;DHT22;674;45.552;-122.600;2023-07-13T01:39:41;27.40;1.00
1361;DHT22;674;45.552;-122.600;2023-07-13T01:42:10;27.40;1.00
1361;DHT22;674;45.552;-122.600;2023-07-13T01:44:38;27.40;1.00
1361;DHT22;674;45.552;-122.600;2023-07-13T01:47:07;27.40;1.00
1361;DHT22;674;45.552;-122.600;2023-07-13T01:49:35;27.40;1.00
1361;DHT22;674;45.552;-122.600;2023-07-13T01:52:05;27.30;1.00
1361;DHT22;674;45.552;-122.600;2023-07-13T01:54:34;27.40;1.00
1361;DHT22;674;45.552;-122.600;2023-07-13T01:57:02;27.30;1.00
1361;DHT22;674;45.552;-122.600;2023-07-13T01:59:31;27.30;1.00
1361;DHT22;674;45.552;-122.600;2023-07-13T02:02:01;27.20;1.00
1361;DHT22;674;45.552;-122.600;2023-07-13T02:04:30;27.30;1.00
1361;DHT22;674;45.552;-122.600;2023-07-13T02:06:58;27.30;1.00
1361;DHT22;674;45.552;-122.600;2023-07-13T02:09:27;27.20;1.00
1361;DHT22;674;45.552;-122.600;2023-07-13T02:11:55;27.20;1.00
1361;DHT22;674;45.552;-122.600;2023-07-13T02:14:24;27.10;1.00
1361;DHT22;674;45.552;-122.600;2023-07-13T02:16:52;27.10;1.00
1361;DHT22;674;45.552;-122.600;2023-07-13T02:19:21;27.00;1.00
1361;DHT22;674;45.552;-122.600;2023-07-13T02:21:50;27.00;1.00
1361;DHT22;674;45.552;-122.600;2023-07-13T02:24:18;27.00;1.00
1361;DHT22;674;45.552;-122.600;2023-07-13T02:26:48;26.90;1.00
1361;DHT22;674;45.552;-122.600;2023-07-13T02:29:17;26.90;1.00
1361;DHT22;674;45.552;-122.600;2023-07-13T02:31:45;26.90;1.00
1361;DHT22;674;45.552;-122.600;2023-07-13T02:34:14;26.80;1.00
1361;DHT22;674;45.552;-122.600;2023-07-13T02:36:42;26.70;1.00
1361;DHT22;674;45.552;-122.600;2023-07-13T02:39:13;26.60;1.00
1361;DHT22;674;45.552;-122.600;2023-07-13T02:41:41;26.60;1.00
1361;DHT22;674;45.552;-122.600;2023-07-13T02:44:12;26.40;1.00
1361;DHT22;674;45.552;-122.600;2023-07-13T02:46:41;26.40;1.00
1361;DHT22;674;45.552;-122.600;2023-07-13T02:49:10;26.20;1.00
1361;DHT22;674;45.552;-122.600;2023-07-13T02:51:38;26.20;1.00
1361;DHT22;674;45.552;-122.600;2023-07-13T02:54:07;26.10;1.00
1361;DHT22;674;45.552;-122.600;2023-07-13T02:56:37;25.90;1.00
1361;DHT22;674;45.552;-122.600;2023-07-13T02:59:07;25.80;1.00
1361;DHT22;674;45.552;-122.600;2023-07-13T03:01:35;25.80;1.00
1361;DHT22;674;45.552;-122.600;2023-07-13T03:04:04;25.70;1.00
1361;DHT22;674;45.552;-122.600;2023-07-13T03:06:33;25.50;1.00
1361;DHT22;674;45.552;-122.600;2023-07-13T03:09:02;25.40;1.00
1361;DHT22;674;45.552;-122.600;2023-07-13T03:11:31;25.40;1.00
1361;DHT22;674;45.552;-122.600;2023-07-13T03:14:00;25.40;1.00
1361;DHT22;674;45.552;-122.600;2023-07-13T03:16:29;25.30;1.00
1361;DHT22;674;45.552;-122.600;2023-07-13T03:18:57;25.20;1.00
1361;DHT22;674;45.552;-122.600;2023-07-13T03:21:26;25.10;1.00
1361;DHT22;674;45.552;-122.600;2023-07-13T03:23:55;25.00;1.00
1361;DHT22;674;45.552;-122.600;2023-07-13T03:26:23;24.90;1.00
1361;DHT22;674;45.552;-122.600;2023-07-13T03:28:52;24.80;1.00
1361;DHT22;674;45.552;-122.600;2023-07-13T03:31:24;24.80;1.00
1361;DHT22;674;45.552;-122.600;2023-07-13T03:33:53;24.70;1.00
1361;DHT22;674;45.552;-122.600;2023-07-13T03:36:26;24.70;1.00
1361;DHT22;674;45.552;-122.600;2023-07-13T03:39:00;24.50;1.00
1361;DHT22;674;45.552;-122.600;2023-07-13T03:41:29;24.40;1.00
1361;DHT22;674;45.552;-122.600;2023-07-13T03:43:59;24.30;1.00
1361;DHT22;674;45.552;-122.600;2023-07-13T03:46:28;24.30;1.00
1361;DHT22;674;45.552;-122.600;2023-07-13T03:48:56;24.20;1.00
1361;DHT22;674;45.552;-122.600;2023-07-13T03:51:25;24.10;1.00
1361;DHT22;674;45.552;-122.600;2023-07-13T03:53:54;24.10;1.00
1361;DHT22;674;45.552;-122.600;2023-07-13T03:56:23;24.00;1.00
1361;DHT22;674;45.552;-122.600;2023-07-13T03:58:51;23.90;1.00
1361;DHT22;674;45.552;-122.600;2023-07-13T04:01:21;23.70;1.00
1361;DHT22;674;45.552;-122.600;2023-07-13T04:03:51;23.70;1.00
1361;DHT22;674;45.552;-122.600;2023-07-13T04:06:33;23.70;1.00
1361;DHT22;674;45.552;-122.600;2023-07-13T04:09:03;23.60;1.00
1361;DHT22;674;45.552;-122.600;2023-07-13T04:11:34;23.60;1.00
1361;DHT22;674;45.552;-122.600;2023-07-13T04:14:04;23.50;1.00
1361;DHT22;674;45.552;-122.600;2023-07-13T04:16:33;23.30;1.00
1361;DHT22;674;45.552;-122.600;2023-07-13T04:19:02;23.20;1.00
1361;DHT22;674;45.552;-122.600;2023-07-13T04:21:31;23.20;1.00
1361;DHT22;674;45.552;-122.600;2023-07-13T04:24:00;23.20;1.00
1361;DHT22;674;45.552;-122.600;2023-07-13T04:26:29;23.10;1.00
1361;DHT22;674;45.552;-122.600;2023-07-13T04:28:58;23.10;1.00
1361;DHT22;674;45.552;-122.600;2023-07-13T04:31:26;22.90;1.00
1361;DHT22;674;45.552;-122.600;2023-07-13T04:33:56;22.90;1.00
1361;DHT22;674;45.552;-122.600;2023-07-13T04:36:26;22.80;1.00
1361;DHT22;674;45.552;-122.600;2023-07-13T04:38:57;22.80;1.00
1361;DHT22;674;45.552;-122.600;2023-07-13T04:41:26;22.70;1.00
1361;DHT22;674;45.552;-122.600;2023-07-13T04:43:54;22.70;1.00
1361;DHT22;674;45.552;-122.600;2023-07-13T04:46:23;22.70;1.00
1361;DHT22;674;45.552;-122.600;2023-07-13T04:48:52;22.60;1.00
1361;DHT22;674;45.552;-122.600;2023-07-13T04:51:21;22.50;1.00
1361;DHT22;674;45.552;-122.600;2023-07-13T04:53:50;22.40;1.00
1361;DHT22;674;45.552;-122.600;2023-07-13T04:56:26;22.40;1.00
1361;DHT22;674;45.552;-122.600;2023-07-13T04:58:54;22.30;1.00
1361;DHT22;674;45.552;-122.600;2023-07-13T05:01:23;22.30;1.00
1361;DHT22;674;45.552;-122.600;2023-07-13T05:03:51;22.30;1.00
1361;DHT22;674;45.552;-122.600;2023-07-13T05:06:20;22.20;1.00
1361;DHT22;674;45.552;-122.600;2023-07-13T05:08:49;22.20;1.00
1361;DHT22;674;45.552;-122.600;2023-07-13T05:11:18;22.20;1.00
1361;DHT22;674;45.552;-122.600;2023-07-13T05:13:47;22.10;1.00
1361;DHT22;674;45.552;-122.600;2023-07-13T05:16:15;22.10;1.00
1361;DHT22;674;45.552;-122.600;2023-07-13T05:18:44;22.00;1.00
1361;DHT22;674;45.552;-122.600;2023-07-13T05:21:12;22.00;1.00
1361;DHT22;674;45.552;-122.600;2023-07-13T05:23:42;22.00;1.00
1361;DHT22;674;45.552;-122.600;2023-07-13T05:26:10;21.90;1.00
1361;DHT22;674;45.552;-122.600;2023-07-13T05:28:39;21.80;1.00
1361;DHT22;674;45.552;-122.600;2023-07-13T05:31:09;21.80;1.00
1361;DHT22;674;45.552;-122.600;2023-07-13T05:33:39;21.70;1.00
1361;DHT22;674;45.552;-122.600;2023-07-13T05:36:07;21.70;1.00
1361;DHT22;674;45.552;-122.600;2023-07-13T05:38:36;21.60;1.00
1361;DHT22;674;45.552;-122.600;2023-07-13T05:41:05;21.60;1.00
1361;DHT22;674;45.552;-122.600;2023-07-13T05:43:34;21.60;1.00
1361;DHT22;674;45.552;-122.600;2023-07-13T05:46:03;21.50;1.00
1361;DHT22;674;45.552;-122.600;2023-07-13T05:48:31;21.50;1.00
1361;DHT22;674;45.552;-122.600;2023-07-13T05:51:01;21.40;1.00
1361;DHT22;674;45.552;-122.600;2023-07-13T05:53:33;21.40;1.00
1361;DHT22;674;45.552;-122.600;2023-07-13T05:56:02;21.40;1.00
1361;DHT22;674;45.552;-122.600;2023-07-13T05:58:31;21.20;1.00
1361;DHT22;674;45.552;-122.600;2023-07-13T06:01:05;21.20;1.00
1361;DHT22;674;45.552;-122.600;2023-07-13T06:03:34;21.20;1.00
1361;DHT22;674;45.552;-122.600;2023-07-13T06:06:04;21.10;1.00
1361;DHT22;674;45.552;-122.600;2023-07-13T06:08:33;21.10;1.00
1361;DHT22;674;45.552;-122.600;2023-07-13T06:11:07;21.00;1.00
1361;DHT22;674;45.552;-122.600;2023-07-13T06:13:36;21.00;1.00
1361;DHT22;674;45.552;-122.600;2023-07-13T06:16:06;20.90;1.00
1361;DHT22;674;45.552;-122.600;2023-07-13T06:18:36;20.90;1.00
1361;DHT22;674;45.552;-122.600;2023-07-13T06:21:13;20.80;1.00
1361;DHT22;674;45.552;-122.600;2023-07-13T06:23:43;20.70;1.00
1361;DHT22;674;45.552;-122.600;2023-07-13T06:26:12;20.70;1.00
1361;DHT22;674;45.552;-122.600;2023-07-13T06:28:41;20.70;1.00
1361;DHT22;674;45.552;-122.600;2023-07-13T06:31:11;20.70;1.00
1361;DHT22;674;45.552;-122.600;2023-07-13T06:33:41;20.60;1.00
1361;DHT22;674;45.552;-122.600;2023-07-13T06:36:10;20.60;1.00
1361;DHT22;674;45.552;-122.600;2023-07-13T06:38:39;20.60;1.00
1361;DHT22;674;45.552;-122.600;2023-07-13T06:41:08;20.50;1.00
1361;DHT22;674;45.552;-122.600;2023-07-13T06:43:37;20.40;1.00
1361;DHT22;674;45.552;-122.600;2023-07-13T06:46:08;20.40;1.00
1361;DHT22;674;45.552;-122.600;2023-07-13T06:48:37;20.30;1.00
1361;DHT22;674;45.552;-122.600;2023-07-13T06:51:06;20.30;1.00
1361;DHT22;674;45.552;-122.600;2023-07-13T06:53:35;20.20;1.00
1361;DHT22;674;45.552;-122.600;2023-07-13T06:56:04;20.20;1.00
1361;DHT22;674;45.552;-122.600;2023-07-13T06:58:34;20.20;1.00
1361;DHT22;674;45.552;-122.600;2023-07-13T07:01:04;20.10;1.00
1361;DHT22;674;45.552;-122.600;2023-07-13T07:03:35;20.10;1.00
1361;DHT22;674;45.552;-122.600;2023-07-13T07:06:18;20.10;1.00
1361;DHT22;674;45.552;-122.600;2023-07-13T07:08:47;20.00;1.00
1361;DHT22;674;45.552;-122.600;2023-07-13T07:11:21;20.00;1.00
1361;DHT22;674;45.552;-122.600;2023-07-13T07:13:52;19.90;1.00
1361;DHT22;674;45.552;-122.600;2023-07-13T07:16:21;19.90;1.00
1361;DHT22;674;45.552;-122.600;2023-07-13T07:18:50;19.80;1.00
1361;DHT22;674;45.552;-122.600;2023-07-13T07:21:21;19.80;1.00
1361;DHT22;674;45.552;-122.600;2023-07-13T07:24:01;19.70;1.00
1361;DHT22;674;45.552;-122.600;2023-07-13T07:26:31;19.60;1.00
1361;DHT22;674;45.552;-122.600;2023-07-13T07:29:20;19.70;1.00
1361;DHT22;674;45.552;-122.600;2023-07-13T07:31:51;19.60;1.00
1361;DHT22;674;45.552;-122.600;2023-07-13T07:34:23;19.60;1.00
1361;DHT22;674;45.552;-122.600;2023-07-13T07:36:53;19.60;1.00
1361;DHT22;674;45.552;-122.600;2023-07-13T07:39:24;19.60;1.00
1361;DHT22;674;45.552;-122.600;2023-07-13T07:41:54;19.50;1.00
1361;DHT22;674;45.552;-122.600;2023-07-13T07:44:23;19.40;1.00
1361;DHT22;674;45.552;-122.600;2023-07-13T07:46:52;19.40;1.00
1361;DHT22;674;45.552;-122.600;2023-07-13T07:49:21;19.40;1.00
1361;DHT22;674;45.552;-122.600;2023-07-13T07:51:50;19.40;1.00
1361;DHT22;674;45.552;-122.600;2023-07-13T07:54:19;19.30;1.00
1361;DHT22;674;45.552;-122.600;2023-07-13T07:57:07;19.30;1.00
1361;DHT22;674;45.552;-122.600;2023-07-13T07:59:39;19.20;1.00
1361;DHT22;674;45.552;-122.600;2023-07-13T08:02:11;19.20;1.00
1361;DHT22;674;45.552;-122.600;2023-07-13T08:04:59;19.10;1.00
1361;DHT22;674;45.552;-122.600;2023-07-13T08:07:31;19.10;1.00
1361;DHT22;674;45.552;-122.600;2023-07-13T08:10:00;19.00;1.00
1361;DHT22;674;45.552;-122.600;2023-07-13T08:12:29;18.90;1.00
1361;DHT22;674;45.552;-122.600;2023-07-13T08:15:00;18.90;1.00
1361;DHT22;674;45.552;-122.600;2023-07-13T08:17:29;18.80;1.00
1361;DHT22;674;45.552;-122.600;2023-07-13T08:19:57;18.80;1.00
1361;DHT22;674;45.552;-122.600;2023-07-13T08:22:27;18.80;1.00
1361;DHT22;674;45.552;-122.600;2023-07-13T08:24:56;18.80;1.00
1361;DHT22;674;45.552;-122.600;2023-07-13T08:27:26;18.80;1.00
1361;DHT22;674;45.552;-122.600;2023-07-13T08:29:55;18.70;1.00
1361;DHT22;674;45.552;-122.600;2023-07-13T08:32:24;18.60;1.00
1361;DHT22;674;45.552;-122.600;2023-07-13T08:34:53;18.60;1.00
1361;DHT22;674;45.552;-122.600;2023-07-13T08:37:22;18.60;1.00
1361;DHT22;674;45.552;-122.600;2023-07-13T08:39:50;18.60;1.00
1361;DHT22;674;45.552;-122.600;2023-07-13T08:42:45;18.50;1.00
1361;DHT22;674;45.552;-122.600;2023-07-13T08:48:04;18.50;1.00
1361;DHT22;674;45.552;-122.600;2023-07-13T08:50:49;18.40;1.00
1361;DHT22;674;45.552;-122.600;2023-07-13T08:53:48;18.40;1.00
1361;DHT22;674;45.552;-122.600;2023-07-13T08:56:19;18.30;1.00
1361;DHT22;674;45.552;-122.600;2023-07-13T08:58:58;18.30;1.00
1361;DHT22;674;45.552;-122.600;2023-07-13T09:01:54;18.20;1.00
1361;DHT22;674;45.552;-122.600;2023-07-13T09:04:37;18.10;1.00
1361;DHT22;674;45.552;-122.600;2023-07-13T09:10:40;18.10;1.00
1361;DHT22;674;45.552;-122.600;2023-07-13T09:13:26;18.10;1.00
1361;DHT22;674;45.552;-122.600;2023-07-13T09:15:56;18.00;1.00
1361;DHT22;674;45.552;-122.600;2023-07-13T09:18:37;18.00;1.00
1361;DHT22;674;45.552;-122.600;2023-07-13T09:23:47;17.90;1.00
1361;DHT22;674;45.552;-122.600;2023-07-13T09:26:22;17.90;1.00
1361;DHT22;674;45.552;-122.600;2023-07-13T09:28:56;17.90;1.00
1361;DHT22;674;45.552;-122.600;2023-07-13T09:31:40;17.80;1.00
1361;DHT22;674;45.552;-122.600;2023-07-13T09:34:11;17.80;1.00
1361;DHT22;674;45.552;-122.600;2023-07-13T09:36:40;17.70;1.00
1361;DHT22;674;45.552;-122.600;2023-07-13T09:44:51;17.60;1.00
1361;DHT22;674;45.552;-122.600;2023-07-13T09:47:29;17.60;1.00
1361;DHT22;674;45.552;-122.600;2023-07-13T09:50:14;17.50;1.00
1361;DHT22;674;45.552;-122.600;2023-07-13T09:52:46;17.50;1.00
1361;DHT22;674;45.552;-122.600;2023-07-13T09:55:32;17.50;1.00
1361;DHT22;674;45.552;-122.600;2023-07-13T10:00:40;17.40;1.00
1361;DHT22;674;45.552;-122.600;2023-07-13T10:03:20;17.40;1.00
1361;DHT22;674;45.552;-122.600;2023-07-13T10:05:51;17.30;1.00
1361;DHT22;674;45.552;-122.600;2023-07-13T10:08:30;17.30;1.00
1361;DHT22;674;45.552;-122.600;2023-07-13T10:11:08;17.30;1.00
1361;DHT22;674;45.552;-122.600;2023-07-13T10:13:53;17.20;1.00
1361;DHT22;674;45.552;-122.600;2023-07-13T10:16:26;17.20;1.00
1361;DHT22;674;45.552;-122.600;2023-07-13T10:19:21;17.20;1.00
1361;DHT22;674;45.552;-122.600;2023-07-13T10:21:54;17.10;1.00
1361;DHT22;674;45.552;-122.600;2023-07-13T10:24:31;17.00;1.00
1361;DHT22;674;45.552;-122.600;2023-07-13T10:27:19;17.00;1.00
1361;DHT22;674;45.552;-122.600;2023-07-13T10:29:52;17.00;1.00
1361;DHT22;674;45.552;-122.600;2023-07-13T10:32:23;17.00;1.00
1361;DHT22;674;45.552;-122.600;2023-07-13T10:34:53;16.90;1.00
1361;DHT22;674;45.552;-122.600;2023-07-13T10:37:27;16.90;1.00
1361;DHT22;674;45.552;-122.600;2023-07-13T10:39:57;16.90;1.00
1361;DHT22;674;45.552;-122.600;2023-07-13T10:42:32;16.90;1.00
1361;DHT22;674;45.552;-122.600;2023-07-13T10:45:16;16.90;1.00
1361;DHT22;674;45.552;-122.600;2023-07-13T10:47:47;16.90;1.00
1361;DHT22;674;45.552;-122.600;2023-07-13T10:50:22;16.80;1.00
1361;DHT22;674;45.552;-122.600;2023-07-13T10:52:55;16.70;1.00
1361;DHT22;674;45.552;-122.600;2023-07-13T10:56:19;16.80;1.00
1361;DHT22;674;45.552;-122.600;2023-07-13T11:01:17;16.70;1.00
1361;DHT22;674;45.552;-122.600;2023-07-13T11:04:02;16.70;1.00
1361;DHT22;674;45.552;-122.600;2023-07-13T11:06:38;16.70;1.00
1361;DHT22;674;45.552;-122.600;2023-07-13T11:09:40;16.70;1.00
1361;DHT22;674;45.552;-122.600;2023-07-13T11:17:46;16.50;1.00
1361;DHT22;674;45.552;-122.600;2023-07-13T11:20:20;16.60;1.00
1361;DHT22;674;45.552;-122.600;2023-07-13T11:23:17;16.50;1.00
1361;DHT22;674;45.552;-122.600;2023-07-13T11:25:46;16.50;1.00
1361;DHT22;674;45.552;-122.600;2023-07-13T11:28:23;16.50;1.00
1361;DHT22;674;45.552;-122.600;2023-07-13T11:36:19;16.50;1.00
1361;DHT22;674;45.552;-122.600;2023-07-13T11:39:21;16.40;1.00
1361;DHT22;674;45.552;-122.600;2023-07-13T11:41:53;16.40;1.00
1361;DHT22;674;45.552;-122.600;2023-07-13T11:44:26;16.40;1.00
1361;DHT22;674;45.552;-122.600;2023-07-13T11:47:00;16.40;1.00
1361;DHT22;674;45.552;-122.600;2023-07-13T11:49:32;16.40;1.00
1361;DHT22;674;45.552;-122.600;2023-07-13T11:52:11;16.30;1.00
1361;DHT22;674;45.552;-122.600;2023-07-13T11:57:32;16.30;1.00
1361;DHT22;674;45.552;-122.600;2023-07-13T12:00:10;16.20;1.00
1361;DHT22;674;45.552;-122.600;2023-07-13T12:02:44;16.20;1.00
1361;DHT22;674;45.552;-122.600;2023-07-13T12:05:15;16.20;1.00
1361;DHT22;674;45.552;-122.600;2023-07-13T12:07:45;16.20;1.00
1361;DHT22;674;45.552;-122.600;2023-07-13T12:12:54;16.10;1.00
1361;DHT22;674;45.552;-122.600;2023-07-13T12:15:28;16.10;1.00
1361;DHT22;674;45.552;-122.600;2023-07-13T12:17:59;16.10;1.00
1361;DHT22;674;45.552;-122.600;2023-07-13T12:20:33;16.10;1.00
1361;DHT22;674;45.552;-122.600;2023-07-13T12:23:06;16.10;1.00
1361;DHT22;674;45.552;-122.600;2023-07-13T12:25:39;16.00;1.00
1361;DHT22;674;45.552;-122.600;2023-07-13T12:28:35;16.00;1.00
1361;DHT22;674;45.552;-122.600;2023-07-13T12:31:07;16.00;1.00
1361;DHT22;674;45.552;-122.600;2023-07-13T12:33:39;16.00;1.00
1361;DHT22;674;45.552;-122.600;2023-07-13T12:36:12;16.00;1.00
1361;DHT22;674;45.552;-122.600;2023-07-13T12:38:41;16.00;1.00
1361;DHT22;674;45.552;-122.600;2023-07-13T12:41:09;15.90;1.00
1361;DHT22;674;45.552;-122.600;2023-07-13T12:43:38;15.90;1.00
1361;DHT22;674;45.552;-122.600;2023-07-13T12:46:18;15.90;1.00
1361;DHT22;674;45.552;-122.600;2023-07-13T12:48:53;15.90;1.00
1361;DHT22;674;45.552;-122.600;2023-07-13T12:51:39;15.90;1.00
1361;DHT22;674;45.552;-122.600;2023-07-13T12:54:16;15.90;1.00
1361;DHT22;674;45.552;-122.600;2023-07-13T12:56:49;15.90;1.00
1361;DHT22;674;45.552;-122.600;2023-07-13T12:59:22;15.90;1.00
1361;DHT22;674;45.552;-122.600;2023-07-13T13:01:50;15.90;1.00
1361;DHT22;674;45.552;-122.600;2023-07-13T13:04:19;16.00;1.00
1361;DHT22;674;45.552;-122.600;2023-07-13T13:07:00;15.90;1.00
1361;DHT22;674;45.552;-122.600;2023-07-13T13:09:29;15.90;1.00
1361;DHT22;674;45.552;-122.600;2023-07-13T13:11:58;16.00;1.00
1361;DHT22;674;45.552;-122.600;2023-07-13T13:14:27;16.00;1.00
1361;DHT22;674;45.552;-122.600;2023-07-13T13:16:55;16.00;1.00
1361;DHT22;674;45.552;-122.600;2023-07-13T13:19:27;16.10;1.00
1361;DHT22;674;45.552;-122.600;2023-07-13T13:21:56;16.10;1.00
1361;DHT22;674;45.552;-122.600;2023-07-13T13:24:27;16.10;1.00
1361;DHT22;674;45.552;-122.600;2023-07-13T13:26:56;16.10;1.00
1361;DHT22;674;45.552;-122.600;2023-07-13T13:29:25;16.10;1.00
1361;DHT22;674;45.552;-122.600;2023-07-13T13:31:55;16.20;1.00
1361;DHT22;674;45.552;-122.600;2023-07-13T13:34:25;16.30;1.00
1361;DHT22;674;45.552;-122.600;2023-07-13T13:36:55;16.30;1.00
1361;DHT22;674;45.552;-122.600;2023-07-13T13:39:33;16.30;1.00
1361;DHT22;674;45.552;-122.600;2023-07-13T13:42:03;16.30;1.00
1361;DHT22;674;45.552;-122.600;2023-07-13T13:44:32;16.30;1.00
1361;DHT22;674;45.552;-122.600;2023-07-13T13:47:01;16.40;1.00
1361;DHT22;674;45.552;-122.600;2023-07-13T13:49:30;16.40;1.00
1361;DHT22;674;45.552;-122.600;2023-07-13T13:51:59;16.40;1.00
1361;DHT22;674;45.552;-122.600;2023-07-13T13:54:27;16.40;1.00
1361;DHT22;674;45.552;-122.600;2023-07-13T13:56:56;16.50;1.00
1361;DHT22;674;45.552;-122.600;2023-07-13T13:59:27;16.50;1.00
1361;DHT22;674;45.552;-122.600;2023-07-13T14:01:58;16.60;1.00
1361;DHT22;674;45.552;-122.600;2023-07-13T14:04:28;16.60;1.00
1361;DHT22;674;45.552;-122.600;2023-07-13T14:06:57;16.70;1.00
1361;DHT22;674;45.552;-122.600;2023-07-13T14:09:25;16.80;1.00
1361;DHT22;674;45.552;-122.600;2023-07-13T14:11:54;17.00;1.00
1361;DHT22;674;45.552;-122.600;2023-07-13T14:14:24;17.00;1.00
1361;DHT22;674;45.552;-122.600;2023-07-13T14:16:55;17.10;1.00
1361;DHT22;674;45.552;-122.600;2023-07-13T14:19:24;17.20;1.00
1361;DHT22;674;45.552;-122.600;2023-07-13T14:21:53;17.20;1.00
1361;DHT22;674;45.552;-122.600;2023-07-13T14:24:21;17.20;1.00
1361;DHT22;674;45.552;-122.600;2023-07-13T14:26:50;17.40;1.00
1361;DHT22;674;45.552;-122.600;2023-07-13T14:29:19;17.50;1.00
1361;DHT22;674;45.552;-122.600;2023-07-13T14:31:51;17.50;1.00
1361;DHT22;674;45.552;-122.600;2023-07-13T14:34:20;17.60;1.00
1361;DHT22;674;45.552;-122.600;2023-07-13T14:36:50;17.70;1.00
1361;DHT22;674;45.552;-122.600;2023-07-13T14:39:21;17.80;1.00
1361;DHT22;674;45.552;-122.600;2023-07-13T14:41:52;17.80;1.00
1361;DHT22;674;45.552;-122.600;2023-07-13T14:44:27;17.90;1.00
1361;DHT22;674;45.552;-122.600;2023-07-13T14:47:02;17.90;1.00
1361;DHT22;674;45.552;-122.600;2023-07-13T14:49:38;18.00;1.00
1361;DHT22;674;45.552;-122.600;2023-07-13T14:52:20;18.00;1.00
1361;DHT22;674;45.552;-122.600;2023-07-13T14:54:52;18.10;1.00
1361;DHT22;674;45.552;-122.600;2023-07-13T14:57:21;18.10;1.00
1361;DHT22;674;45.552;-122.600;2023-07-13T14:59:50;18.20;1.00
1361;DHT22;674;45.552;-122.600;2023-07-13T15:02:34;18.30;1.00
1361;DHT22;674;45.552;-122.600;2023-07-13T15:05:17;18.30;1.00
1361;DHT22;674;45.552;-122.600;2023-07-13T15:07:46;18.40;1.00
1361;DHT22;674;45.552;-122.600;2023-07-13T15:10:21;18.50;1.00
1361;DHT22;674;45.552;-122.600;2023-07-13T15:12:52;18.60;1.00
1361;DHT22;674;45.552;-122.600;2023-07-13T15:15:21;18.50;1.00
1361;DHT22;674;45.552;-122.600;2023-07-13T15:17:49;18.60;1.00
1361;DHT22;674;45.552;-122.600;2023-07-13T15:20:23;18.50;1.00
1361;DHT22;674;45.552;-122.600;2023-07-13T15:22:53;18.50;1.00
1361;DHT22;674;45.552;-122.600;2023-07-13T15:25:27;18.50;1.00
1361;DHT22;674;45.552;-122.600;2023-07-13T15:27:57;18.50;1.00
1361;DHT22;674;45.552;-122.600;2023-07-13T15:30:31;18.60;1.00
1361;DHT22;674;45.552;-122.600;2023-07-13T15:33:17;18.70;1.00
1361;DHT22;674;45.552;-122.600;2023-07-13T15:35:48;18.90;1.00
1361;DHT22;674;45.552;-122.600;2023-07-13T15:38:29;19.00;1.00
1361;DHT22;674;45.552;-122.600;2023-07-13T15:40:58;19.00;1.00
1361;DHT22;674;45.552;-122.600;2023-07-13T15:43:28;19.10;1.00
1361;DHT22;674;45.552;-122.600;2023-07-13T15:46:00;19.10;1.00
1361;DHT22;674;45.552;-122.600;2023-07-13T15:48:32;19.20;1.00
1361;DHT22;674;45.552;-122.600;2023-07-13T15:51:03;19.30;1.00
1361;DHT22;674;45.552;-122.600;2023-07-13T15:53:33;19.40;1.00
1361;DHT22;674;45.552;-122.600;2023-07-13T15:56:20;19.40;1.00
1361;DHT22;674;45.552;-122.600;2023-07-13T15:58:51;19.50;1.00
1361;DHT22;674;45.552;-122.600;2023-07-13T16:01:20;19.50;1.00
1361;DHT22;674;45.552;-122.600;2023-07-13T16:03:49;19.50;1.00
1361;DHT22;674;45.552;-122.600;2023-07-13T16:08:55;19.70;1.00
1361;DHT22;674;45.552;-122.600;2023-07-13T16:11:26;19.70;1.00
1361;DHT22;674;45.552;-122.600;2023-07-13T16:13:55;19.60;1.00
1361;DHT22;674;45.552;-122.600;2023-07-13T16:16:30;19.80;1.00
1361;DHT22;674;45.552;-122.600;2023-07-13T16:19:03;19.90;1.00
1361;DHT22;674;45.552;-122.600;2023-07-13T16:21:38;19.90;1.00
1361;DHT22;674;45.552;-122.600;2023-07-13T16:24:17;20.00;1.00
1361;DHT22;674;45.552;-122.600;2023-07-13T16:26:47;20.10;1.00
1361;DHT22;674;45.552;-122.600;2023-07-13T16:29:22;20.20;1.00
1361;DHT22;674;45.552;-122.600;2023-07-13T16:32:02;20.20;1.00
1361;DHT22;674;45.552;-122.600;2023-07-13T16:34:32;20.30;1.00
1361;DHT22;674;45.552;-122.600;2023-07-13T16:37:31;20.20;1.00
1361;DHT22;674;45.552;-122.600;2023-07-13T16:39:59;20.30;1.00
1361;DHT22;674;45.552;-122.600;2023-07-13T16:42:28;20.40;1.00
1361;DHT22;674;45.552;-122.600;2023-07-13T16:44:57;20.40;1.00
1361;DHT22;674;45.552;-122.600;2023-07-13T16:47:26;20.40;1.00
1361;DHT22;674;45.552;-122.600;2023-07-13T16:49:56;20.50;1.00
1361;DHT22;674;45.552;-122.600;2023-07-13T16:52:26;20.60;1.00
1361;DHT22;674;45.552;-122.600;2023-07-13T16:54:54;20.70;1.00
1361;DHT22;674;45.552;-122.600;2023-07-13T16:57:27;20.70;1.00